JTC501 KABQ-KSTP
Flight info
| Callsign | JTC501 |
|---|---|
| Flight time | 2h 6m |
| Altitude | 41000 |
| Route | LARGO3 ABQ FTI FSD ENCEE3 |
| Aircraft | FA50/M-SDFGHIM1RWXY/H |
Departure
| Time | 2026-05-04 09:31 |
|---|---|
| Airport | Albuquerque International Sunport (KABQ) |
Arrival
| Time | 2026-05-04 11:38 |
|---|---|
| Airport | Saint Paul Downtown Holman Field (KSTP) |
| Time | Latitude | Longitude | Altitude | Speed | Heading |
|---|---|---|---|---|---|
| 2026-05-04 09:18 | 35.03584 | -106.61849 | 5441 ft | 0 kts | 44° |
| 2026-05-04 09:26 | 35.03585 | -106.61848 | 5441 ft | 1 kts | 44° |
| 2026-05-04 09:26 | 35.03582 | -106.61827 | 5333 ft | 6 kts | 142° |
| 2026-05-04 09:26 | 35.03527 | -106.61805 | 5311 ft | 11 kts | 199° |
| 2026-05-04 09:27 | 35.03464 | -106.61873 | 5312 ft | 10 kts | 201° |
| 2026-05-04 09:27 | 35.03435 | -106.61810 | 5314 ft | 11 kts | 49° |
| 2026-05-04 09:27 | 35.03496 | -106.61736 | 5311 ft | 13 kts | 43° |
| 2026-05-04 09:27 | 35.03570 | -106.61657 | 5312 ft | 15 kts | 45° |
| 2026-05-04 09:28 | 35.03642 | -106.61557 | 5312 ft | 17 kts | 45° |
| 2026-05-04 09:28 | 35.03730 | -106.61454 | 5313 ft | 18 kts | 44° |
| 2026-05-04 09:28 | 35.03825 | -106.61406 | 5314 ft | 16 kts | 12° |
| 2026-05-04 09:28 | 35.03940 | -106.61382 | 5313 ft | 18 kts | 0° |
| 2026-05-04 09:29 | 35.04066 | -106.61383 | 5310 ft | 19 kts | 3° |
| 2026-05-04 09:29 | 35.04200 | -106.61380 | 5310 ft | 20 kts | 1° |
| 2026-05-04 09:29 | 35.04331 | -106.61378 | 5310 ft | 13 kts | 0° |
| 2026-05-04 09:29 | 35.04412 | -106.61371 | 5311 ft | 9 kts | 8° |
| 2026-05-04 09:30 | 35.04432 | -106.61352 | 5311 ft | 1 kts | 89° |
| 2026-05-04 09:30 | 35.04432 | -106.61341 | 5313 ft | 4 kts | 92° |
| 2026-05-04 09:30 | 35.04429 | -106.61262 | 5313 ft | 31 kts | 91° |
| 2026-05-04 09:30 | 35.04429 | -106.60750 | 5315 ft | 88 kts | 90° |
| 2026-05-04 09:31 | 35.04424 | -106.59804 | 5314 ft | 132 kts | 90° |
| 2026-05-04 09:31 | 35.04416 | -106.58623 | 5620 ft | 143 kts | 90° |
| 2026-05-04 09:31 | 35.04425 | -106.57356 | 6063 ft | 157 kts | 88° |
| 2026-05-04 09:31 | 35.04472 | -106.55905 | 6477 ft | 182 kts | 88° |
| 2026-05-04 09:32 | 35.04524 | -106.54319 | 7110 ft | 190 kts | 90° |
| 2026-05-04 09:32 | 35.04539 | -106.52675 | 7773 ft | 197 kts | 91° |
| 2026-05-04 09:34 | 35.06255 | -106.39154 | 10650 ft | 315 kts | 69° |
| 2026-05-04 09:34 | 35.07301 | -106.36832 | 11596 ft | 311 kts | 57° |
| 2026-05-04 09:34 | 35.08536 | -106.34641 | 12293 ft | 317 kts | 56° |
| 2026-05-04 09:34 | 35.09752 | -106.32371 | 12978 ft | 322 kts | 59° |
| 2026-05-04 09:35 | 35.10857 | -106.29978 | 13719 ft | 325 kts | 62° |
| 2026-05-04 09:35 | 35.11962 | -106.27553 | 14383 ft | 329 kts | 60° |
| 2026-05-04 09:35 | 35.13137 | -106.25136 | 15023 ft | 332 kts | 59° |
| 2026-05-04 09:35 | 35.14328 | -106.22707 | 15680 ft | 335 kts | 60° |
| 2026-05-04 09:37 | 35.22831 | -106.04876 | 19536 ft | 358 kts | 59° |
| 2026-05-04 09:37 | 35.24089 | -106.02236 | 19988 ft | 362 kts | 59° |
| 2026-05-04 09:38 | 35.25345 | -105.99597 | 20433 ft | 365 kts | 59° |
| 2026-05-04 09:38 | 35.26625 | -105.96903 | 20919 ft | 367 kts | 59° |
| 2026-05-04 09:38 | 35.27913 | -105.94192 | 21366 ft | 370 kts | 59° |
| 2026-05-04 09:38 | 35.29213 | -105.91454 | 21795 ft | 374 kts | 58° |
| 2026-05-04 09:39 | 35.30526 | -105.88686 | 22239 ft | 377 kts | 58° |
| 2026-05-04 09:39 | 35.31850 | -105.85893 | 22674 ft | 380 kts | 58° |
| 2026-05-04 09:39 | 35.33183 | -105.83078 | 23096 ft | 384 kts | 58° |
| 2026-05-04 09:39 | 35.34528 | -105.80234 | 23535 ft | 387 kts | 58° |
| 2026-05-04 09:40 | 35.35883 | -105.77369 | 23912 ft | 390 kts | 58° |
| 2026-05-04 09:40 | 35.37248 | -105.74480 | 24278 ft | 393 kts | 58° |
| 2026-05-04 09:40 | 35.38623 | -105.71565 | 24648 ft | 396 kts | 58° |
| 2026-05-04 09:40 | 35.40005 | -105.68634 | 25012 ft | 399 kts | 58° |
| 2026-05-04 09:41 | 35.41397 | -105.65680 | 25381 ft | 402 kts | 58° |
| 2026-05-04 09:42 | 35.51359 | -105.44461 | 27994 ft | 419 kts | 57° |
| 2026-05-04 09:43 | 35.52817 | -105.41345 | 28352 ft | 422 kts | 57° |
| 2026-05-04 09:43 | 35.54281 | -105.38214 | 28715 ft | 425 kts | 57° |
| 2026-05-04 09:43 | 35.55755 | -105.35058 | 29059 ft | 427 kts | 57° |
| 2026-05-04 09:43 | 35.57236 | -105.31882 | 29421 ft | 430 kts | 57° |
| 2026-05-04 09:44 | 35.58727 | -105.28684 | 29769 ft | 433 kts | 57° |
| 2026-05-04 09:44 | 35.60224 | -105.25471 | 30176 ft | 434 kts | 57° |
| 2026-05-04 09:44 | 35.61728 | -105.22236 | 30481 ft | 437 kts | 57° |
| 2026-05-04 09:46 | 35.76320 | -105.04102 | 31566 ft | 433 kts | 33° |
| 2026-05-04 09:46 | 35.78710 | -105.01831 | 31703 ft | 434 kts | 33° |
| 2026-05-04 09:46 | 35.81133 | -104.99611 | 31752 ft | 434 kts | 31° |
| 2026-05-04 09:47 | 35.83594 | -104.97439 | 31910 ft | 435 kts | 31° |
| 2026-05-04 09:47 | 35.86044 | -104.95240 | 32070 ft | 436 kts | 32° |
| 2026-05-04 09:49 | 36.03021 | -104.79759 | 33647 ft | 432 kts | 31° |
| 2026-05-04 09:49 | 36.05403 | -104.77589 | 33859 ft | 431 kts | 31° |
| 2026-05-04 09:49 | 36.07814 | -104.75385 | 34094 ft | 431 kts | 31° |
| 2026-05-04 09:51 | 36.22262 | -104.62149 | 34923 ft | 431 kts | 30° |
| 2026-05-04 09:51 | 36.24672 | -104.59935 | 35073 ft | 431 kts | 30° |
| 2026-05-04 09:51 | 36.27082 | -104.57720 | 35214 ft | 431 kts | 30° |
| 2026-05-04 09:51 | 36.29488 | -104.55507 | 35353 ft | 431 kts | 30° |
| 2026-05-04 09:52 | 36.31895 | -104.53291 | 35488 ft | 431 kts | 30° |
| 2026-05-04 09:52 | 36.34303 | -104.51072 | 35628 ft | 431 kts | 30° |
| 2026-05-04 09:52 | 36.36711 | -104.48851 | 35841 ft | 430 kts | 30° |
| 2026-05-04 09:52 | 36.39096 | -104.46647 | 36097 ft | 427 kts | 30° |
| 2026-05-04 09:53 | 36.41494 | -104.44437 | 36099 ft | 431 kts | 30° |
| 2026-05-04 09:53 | 36.46349 | -104.39948 | 36108 ft | 439 kts | 30° |
| 2026-05-04 09:54 | 36.51281 | -104.35379 | 36105 ft | 445 kts | 30° |
| 2026-05-04 09:54 | 36.56277 | -104.30745 | 36157 ft | 451 kts | 30° |
| 2026-05-04 09:55 | 36.61334 | -104.26045 | 36154 ft | 456 kts | 30° |
| 2026-05-04 09:55 | 36.66440 | -104.21292 | 36157 ft | 461 kts | 31° |
| 2026-05-04 09:56 | 36.71558 | -104.16520 | 36133 ft | 464 kts | 31° |
| 2026-05-04 09:56 | 36.76775 | -104.11648 | 36109 ft | 466 kts | 31° |
| 2026-05-04 09:57 | 36.81942 | -104.06813 | 36054 ft | 469 kts | 31° |
| 2026-05-04 09:57 | 36.87167 | -104.01917 | 36054 ft | 471 kts | 31° |
| 2026-05-04 09:58 | 36.92420 | -103.96983 | 36035 ft | 473 kts | 31° |
| 2026-05-04 09:58 | 36.97691 | -103.92026 | 36027 ft | 474 kts | 31° |
| 2026-05-04 10:00 | 37.18847 | -103.72038 | 36001 ft | 478 kts | 32° |
| 2026-05-04 10:04 | 37.55356 | -103.37203 | 35960 ft | 466 kts | 32° |
| 2026-05-04 10:04 | 37.60518 | -103.32243 | 35948 ft | 467 kts | 32° |
| 2026-05-04 10:05 | 37.65689 | -103.27263 | 35953 ft | 469 kts | 32° |
| 2026-05-04 10:05 | 37.70884 | -103.22254 | 35944 ft | 470 kts | 32° |
| 2026-05-04 10:06 | 37.76080 | -103.17232 | 35959 ft | 470 kts | 32° |
| 2026-05-04 10:06 | 37.81267 | -103.12214 | 35952 ft | 469 kts | 32° |
| 2026-05-04 10:08 | 37.99241 | -102.94743 | 36022 ft | 467 kts | 32° |
| 2026-05-04 10:08 | 38.04388 | -102.89721 | 36049 ft | 467 kts | 32° |
| 2026-05-04 10:09 | 38.09541 | -102.84683 | 36065 ft | 467 kts | 32° |
| 2026-05-04 10:09 | 38.14693 | -102.79636 | 36068 ft | 467 kts | 32° |
| 2026-05-04 10:10 | 38.19843 | -102.74583 | 36070 ft | 467 kts | 32° |
| 2026-05-04 10:10 | 38.24974 | -102.69538 | 36044 ft | 465 kts | 32° |
| 2026-05-04 10:11 | 38.30091 | -102.64500 | 36024 ft | 464 kts | 32° |
| 2026-05-04 10:11 | 38.35172 | -102.59487 | 35977 ft | 465 kts | 32° |
| 2026-05-04 10:12 | 38.40287 | -102.54432 | 35977 ft | 466 kts | 32° |
| 2026-05-04 10:12 | 38.45404 | -102.49364 | 35997 ft | 466 kts | 32° |
| 2026-05-04 10:13 | 38.50533 | -102.44275 | 35966 ft | 466 kts | 32° |
| 2026-05-04 10:13 | 38.55658 | -102.39180 | 35966 ft | 466 kts | 32° |
| 2026-05-04 10:14 | 38.60768 | -102.34093 | 35965 ft | 465 kts | 32° |
| 2026-05-04 10:16 | 38.80296 | -102.14558 | 35940 ft | 467 kts | 32° |
| 2026-05-04 10:16 | 38.86243 | -102.08584 | 35938 ft | 467 kts | 32° |
| 2026-05-04 10:17 | 38.90527 | -102.04268 | 35943 ft | 467 kts | 32° |
| 2026-05-04 10:19 | 39.10926 | -101.83638 | 35936 ft | 467 kts | 32° |
| 2026-05-04 10:19 | 39.16024 | -101.78457 | 35974 ft | 467 kts | 32° |
| 2026-05-04 10:20 | 39.21123 | -101.73266 | 35991 ft | 467 kts | 32° |
| 2026-05-04 10:20 | 39.26220 | -101.68065 | 36008 ft | 467 kts | 32° |
| 2026-05-04 10:21 | 39.31302 | -101.62871 | 36017 ft | 465 kts | 31° |
| 2026-05-04 10:21 | 39.36354 | -101.57699 | 36009 ft | 462 kts | 31° |
| 2026-05-04 10:22 | 39.43908 | -101.49947 | 35931 ft | 463 kts | 32° |
| 2026-05-04 10:23 | 39.48957 | -101.44751 | 35931 ft | 465 kts | 31° |
| 2026-05-04 10:25 | 39.69149 | -101.23875 | 36017 ft | 462 kts | 31° |
| 2026-05-04 10:25 | 39.74170 | -101.18661 | 36054 ft | 461 kts | 31° |
| 2026-05-04 10:26 | 39.79180 | -101.13447 | 36087 ft | 462 kts | 31° |
| 2026-05-04 10:26 | 39.84205 | -101.08207 | 36087 ft | 463 kts | 31° |
| 2026-05-04 10:27 | 39.89197 | -101.02991 | 36086 ft | 463 kts | 31° |
| 2026-05-04 10:27 | 39.94220 | -100.97733 | 36073 ft | 463 kts | 31° |
| 2026-05-04 10:28 | 39.99243 | -100.92465 | 36043 ft | 464 kts | 31° |
| 2026-05-04 10:28 | 40.04271 | -100.87180 | 35999 ft | 464 kts | 31° |
| 2026-05-04 10:29 | 40.09308 | -100.81877 | 35984 ft | 464 kts | 31° |
| 2026-05-04 10:29 | 40.14334 | -100.76574 | 36003 ft | 464 kts | 31° |
| 2026-05-04 10:30 | 40.19354 | -100.71267 | 36024 ft | 464 kts | 31° |
| 2026-05-04 10:30 | 40.24368 | -100.65958 | 36027 ft | 464 kts | 32° |
| 2026-05-04 10:31 | 40.29383 | -100.60634 | 36027 ft | 464 kts | 32° |
| 2026-05-04 10:32 | 40.46848 | -100.42018 | 35958 ft | 463 kts | 31° |
| 2026-05-04 10:33 | 40.51843 | -100.36670 | 35938 ft | 463 kts | 31° |
| 2026-05-04 10:33 | 40.56836 | -100.31313 | 35937 ft | 464 kts | 31° |
| 2026-05-04 10:34 | 40.61840 | -100.25935 | 35949 ft | 464 kts | 32° |
| 2026-05-04 10:34 | 40.66839 | -100.20550 | 35948 ft | 464 kts | 32° |
| 2026-05-04 10:35 | 40.71842 | -100.15151 | 35946 ft | 465 kts | 31° |
| 2026-05-04 10:35 | 40.76844 | -100.09740 | 35946 ft | 465 kts | 31° |
| 2026-05-04 10:36 | 40.81839 | -100.04328 | 36006 ft | 465 kts | 31° |
| 2026-05-04 10:36 | 40.86835 | -99.98903 | 36015 ft | 465 kts | 31° |
| 2026-05-04 10:37 | 40.91828 | -99.93471 | 36017 ft | 465 kts | 32° |
| 2026-05-04 10:37 | 40.96827 | -99.88022 | 36015 ft | 467 kts | 32° |
| 2026-05-04 10:39 | 41.14372 | -99.68805 | 35983 ft | 468 kts | 31° |
| 2026-05-04 10:40 | 41.19383 | -99.63293 | 36004 ft | 468 kts | 31° |
| 2026-05-04 10:40 | 41.24391 | -99.57769 | 36017 ft | 468 kts | 31° |
| 2026-05-04 10:41 | 41.29409 | -99.52229 | 36022 ft | 468 kts | 32° |
| 2026-05-04 10:41 | 41.34426 | -99.46671 | 36028 ft | 469 kts | 32° |
| 2026-05-04 10:42 | 41.39441 | -99.41110 | 36037 ft | 469 kts | 32° |
| 2026-05-04 10:42 | 41.44454 | -99.35535 | 35965 ft | 469 kts | 32° |
| 2026-05-04 10:43 | 41.49460 | -99.29960 | 35983 ft | 469 kts | 32° |
| 2026-05-04 10:45 | 41.69502 | -99.07515 | 36015 ft | 472 kts | 32° |
| 2026-05-04 10:45 | 41.74534 | -99.01850 | 36013 ft | 473 kts | 32° |
| 2026-05-04 10:46 | 41.79528 | -98.96215 | 36002 ft | 473 kts | 32° |
| 2026-05-04 10:46 | 41.84560 | -98.90527 | 35990 ft | 473 kts | 32° |
| 2026-05-04 10:47 | 41.89591 | -98.84827 | 35978 ft | 473 kts | 32° |
| 2026-05-04 10:47 | 41.94614 | -98.79124 | 35969 ft | 473 kts | 32° |
| 2026-05-04 10:49 | 42.14688 | -98.56209 | 35970 ft | 472 kts | 32° |
| 2026-05-04 10:50 | 42.19691 | -98.50468 | 35980 ft | 471 kts | 32° |
| 2026-05-04 10:52 | 42.39616 | -98.27477 | 35981 ft | 471 kts | 32° |
| 2026-05-04 10:52 | 42.44586 | -98.21714 | 35978 ft | 470 kts | 32° |
| 2026-05-04 10:54 | 42.64473 | -97.98516 | 35987 ft | 472 kts | 32° |
| 2026-05-04 10:56 | 42.84309 | -97.75175 | 35988 ft | 470 kts | 32° |
| 2026-05-04 10:57 | 42.89227 | -97.69357 | 35998 ft | 471 kts | 32° |
| 2026-05-04 10:57 | 42.94176 | -97.63488 | 35991 ft | 471 kts | 32° |
| 2026-05-04 10:58 | 42.99120 | -97.57613 | 36056 ft | 471 kts | 33° |
| 2026-05-04 10:58 | 43.04069 | -97.51718 | 36053 ft | 471 kts | 33° |
| 2026-05-04 10:59 | 43.09008 | -97.45823 | 36044 ft | 471 kts | 33° |
| 2026-05-04 10:59 | 43.13940 | -97.39922 | 36033 ft | 471 kts | 33° |
| 2026-05-04 11:00 | 43.18034 | -97.35015 | 36027 ft | 471 kts | 33° |
| 2026-05-04 11:02 | 43.37661 | -97.11358 | 36016 ft | 468 kts | 33° |
| 2026-05-04 11:05 | 43.73545 | -96.65943 | 36036 ft | 468 kts | 37° |
| 2026-05-04 11:06 | 43.78156 | -96.59573 | 36035 ft | 469 kts | 38° |
| 2026-05-04 11:06 | 43.82687 | -96.53064 | 36037 ft | 468 kts | 38° |
| 2026-05-04 11:10 | 44.14450 | -96.07746 | 36046 ft | 467 kts | 39° |
| 2026-05-04 11:12 | 44.32413 | -95.81761 | 36016 ft | 465 kts | 40° |
| 2026-05-04 11:12 | 44.36886 | -95.75253 | 36012 ft | 464 kts | 40° |
| 2026-05-04 11:13 | 44.41356 | -95.68734 | 36013 ft | 464 kts | 40° |
| 2026-05-04 11:13 | 44.45815 | -95.62215 | 36013 ft | 463 kts | 40° |
| 2026-05-04 11:14 | 44.50270 | -95.55688 | 36021 ft | 463 kts | 40° |
| 2026-05-04 11:16 | 44.62674 | -95.24116 | 35984 ft | 481 kts | 69° |
| 2026-05-04 11:16 | 44.64706 | -95.15183 | 35974 ft | 480 kts | 69° |
| 2026-05-04 11:17 | 44.66522 | -95.06152 | 35977 ft | 480 kts | 69° |
| 2026-05-04 11:19 | 44.72872 | -94.75851 | 32785 ft | 424 kts | 69° |
| 2026-05-04 11:19 | 44.73679 | -94.71919 | 31980 ft | 414 kts | 69° |
| 2026-05-04 11:19 | 44.74468 | -94.68076 | 31209 ft | 403 kts | 69° |
| 2026-05-04 11:19 | 44.75241 | -94.64332 | 30453 ft | 394 kts | 69° |
| 2026-05-04 11:20 | 44.75998 | -94.60664 | 29687 ft | 386 kts | 69° |
| 2026-05-04 11:20 | 44.76735 | -94.57072 | 28840 ft | 379 kts | 69° |
| 2026-05-04 11:20 | 44.77456 | -94.53542 | 28006 ft | 372 kts | 69° |
| 2026-05-04 11:20 | 44.78165 | -94.50074 | 27195 ft | 366 kts | 69° |
| 2026-05-04 11:22 | 44.82858 | -94.26983 | 21810 ft | 338 kts | 70° |
| 2026-05-04 11:22 | 44.83495 | -94.23814 | 21017 ft | 334 kts | 70° |
| 2026-05-04 11:23 | 44.84126 | -94.20675 | 20230 ft | 331 kts | 70° |
| 2026-05-04 11:23 | 44.84750 | -94.17569 | 19492 ft | 328 kts | 70° |
| 2026-05-04 11:24 | 44.90160 | -94.01732 | 16751 ft | 276 kts | 56° |
| 2026-05-04 11:25 | 44.91061 | -93.99381 | 16386 ft | 270 kts | 55° |
| 2026-05-04 11:25 | 44.91952 | -93.97082 | 16026 ft | 265 kts | 55° |
| 2026-05-04 11:25 | 44.92822 | -93.94810 | 15670 ft | 261 kts | 55° |
| 2026-05-04 11:26 | 44.94517 | -93.90362 | 14972 ft | 254 kts | 54° |
| 2026-05-04 11:27 | 45.00220 | -93.75391 | 12634 ft | 249 kts | 54° |
| 2026-05-04 11:28 | 45.01050 | -93.73213 | 12288 ft | 255 kts | 55° |
| 2026-05-04 11:28 | 45.01891 | -93.70989 | 11951 ft | 259 kts | 55° |
| 2026-05-04 11:28 | 45.02744 | -93.68734 | 11620 ft | 262 kts | 55° |
| 2026-05-04 11:28 | 45.03608 | -93.66450 | 11275 ft | 265 kts | 56° |
| 2026-05-04 11:29 | 45.04480 | -93.64145 | 10926 ft | 267 kts | 56° |
| 2026-05-04 11:29 | 45.05360 | -93.61818 | 10582 ft | 269 kts | 56° |
| 2026-05-04 11:29 | 45.06245 | -93.59471 | 10233 ft | 271 kts | 56° |
| 2026-05-04 11:29 | 45.07133 | -93.57116 | 9878 ft | 272 kts | 56° |
| 2026-05-04 11:31 | 45.13188 | -93.41003 | 7416 ft | 253 kts | 57° |
| 2026-05-04 11:33 | 45.12498 | -93.25030 | 5090 ft | 238 kts | 120° |
| 2026-05-04 11:33 | 45.11450 | -93.23258 | 4809 ft | 234 kts | 136° |
| 2026-05-04 11:33 | 45.10144 | -93.21911 | 4500 ft | 230 kts | 148° |
| 2026-05-04 11:34 | 45.08784 | -93.20730 | 4187 ft | 228 kts | 147° |
| 2026-05-04 11:34 | 45.07466 | -93.19520 | 3875 ft | 226 kts | 144° |
| 2026-05-04 11:34 | 45.06177 | -93.18258 | 3576 ft | 225 kts | 143° |
| 2026-05-04 11:34 | 45.04875 | -93.17027 | 3275 ft | 224 kts | 144° |
| 2026-05-04 11:35 | 45.03588 | -93.15802 | 2973 ft | 222 kts | 143° |
| 2026-05-04 11:35 | 45.02320 | -93.14584 | 2681 ft | 218 kts | 144° |
| 2026-05-04 11:35 | 45.01096 | -93.13432 | 2395 ft | 205 kts | 143° |
| 2026-05-04 11:35 | 44.99962 | -93.12342 | 2121 ft | 186 kts | 143° |
| 2026-05-04 11:36 | 44.98966 | -93.11403 | 1893 ft | 162 kts | 144° |
| 2026-05-04 11:36 | 44.98109 | -93.10581 | 1704 ft | 140 kts | 144° |
| 2026-05-04 11:36 | 44.97336 | -93.09847 | 1525 ft | 127 kts | 143° |
| 2026-05-04 11:36 | 44.96614 | -93.09160 | 1360 ft | 125 kts | 143° |
| 2026-05-04 11:37 | 44.95883 | -93.08469 | 1210 ft | 128 kts | 144° |
| 2026-05-04 11:37 | 44.95148 | -93.07766 | 1018 ft | 127 kts | 142° |
| 2026-05-04 11:37 | 44.94432 | -93.07080 | 836 ft | 122 kts | 142° |
| 2026-05-04 11:37 | 44.93755 | -93.06436 | 699 ft | 106 kts | 144° |
| 2026-05-04 11:38 | 44.93265 | -93.05976 | 714 ft | 64 kts | 146° |
| 2026-05-04 11:38 | 44.93045 | -93.05769 | 701 ft | 16 kts | 148° |
| 2026-05-04 11:38 | 44.92970 | -93.05792 | 697 ft | 13 kts | 233° |
| 2026-05-04 11:38 | 44.92955 | -93.05868 | 707 ft | 7 kts | 323° |
| 2026-05-04 11:39 | 44.93002 | -93.05913 | 699 ft | 9 kts | 326° |
| 2026-05-04 11:39 | 44.93059 | -93.05966 | 699 ft | 10 kts | 326° |
| 2026-05-04 11:40 | 44.93341 | -93.06351 | 706 ft | 8 kts | 173° |
| 2026-05-04 11:41 | 44.93300 | -93.06369 | 703 ft | 6 kts | 251° |
| 2026-05-04 11:41 | 44.93298 | -93.06438 | 708 ft | 8 kts | 270° |
| 2026-05-04 11:41 | 44.93278 | -93.06469 | 711 ft | 3 kts | 115° |
| 2026-05-04 11:41 | 44.93277 | -93.06459 | 711 ft | 0 kts | 88° |